Time;durP1;ratioP1;P1;durP2;ratioP2;P2;SDS_P1;SDS_P2;PMS_P1;PMS_P2;Temp;Humidity;BMP_temperature;BMP_pressure;BME280_temperature;BME280_humidity;BME280_pressure;Samples;Min_cycle;Max_cycle;Signal;HPM_P1;HPM_P2
2022/04/24 00:01:37;;;;;;;6.68;4.70;;;;;;;11.98;51.70;100152.13;5067630;28;20039;-77
2022/04/24 00:04:03;;;;;;;5.72;4.50;;;;;;;11.92;52.58;100152.69;5059241;28;20032;-75
2022/04/24 00:06:31;;;;;;;6.03;4.95;;;;;;;11.90;51.46;100146.53;5060201;28;20083;-69
2022/04/24 00:08:57;;;;;;;7.60;4.93;;;;;;;11.83;52.52;100142.59;5059992;28;20024;-70
2022/04/24 00:11:23;;;;;;;6.53;4.72;;;;;;;11.79;52.05;100147.41;5060952;28;20066;-75
2022/04/24 00:13:48;;;;;;;4.50;3.97;;;;;;;11.69;52.78;100150.09;5066440;28;20083;-74
2022/04/24 00:16:13;;;;;;;5.40;4.53;;;;;;;11.65;53.17;100143.19;5060543;28;20060;-69
2022/04/24 00:18:39;;;;;;;7.82;5.38;;;;;;;11.62;52.49;100139.91;5059514;28;20043;-73
2022/04/24 00:21:07;;;;;;;7.53;5.13;;;;;;;11.56;52.56;100137.69;5066381;28;20031;-71
2022/04/24 00:23:33;;;;;;;7.68;4.80;;;;;;;11.48;53.44;100130.22;5068041;28;20055;-68
2022/04/24 00:25:59;;;;;;;6.25;4.60;;;;;;;11.37;54.27;100128.41;5067078;28;20446;-70
2022/04/24 00:28:25;;;;;;;10.20;4.82;;;;;;;11.32;54.10;100133.41;5068829;28;20086;-75
2022/04/24 00:30:50;;;;;;;7.25;5.03;;;;;;;11.27;53.77;100123.91;5058569;28;20041;-71
2022/04/24 00:33:16;;;;;;;6.10;5.03;;;;;;;11.23;55.13;100129.59;5065219;28;20032;-77
2022/04/24 00:35:41;;;;;;;7.55;5.50;;;;;;;11.17;54.43;100121.97;5060806;28;20029;-78
2022/04/24 00:38:07;;;;;;;7.35;5.00;;;;;;;11.09;54.35;100134.53;5069186;28;20035;-78
2022/04/24 00:40:32;;;;;;;6.90;4.88;;;;;;;11.05;54.44;100124.88;5078997;28;20032;-75
2022/04/24 00:42:58;;;;;;;8.50;5.10;;;;;;;10.99;54.88;100127.16;5056787;28;20060;-76
2022/04/24 00:45:23;;;;;;;8.00;5.40;;;;;;;10.95;55.10;100122.97;5064337;28;20027;-77
2022/04/24 00:47:49;;;;;;;6.05;4.82;;;;;;;10.94;54.66;100128.53;5062624;28;20040;-75
2022/04/24 00:50:14;;;;;;;6.70;5.28;;;;;;;10.85;55.80;100127.47;5065570;28;20525;-71
2022/04/24 00:52:40;;;;;;;7.15;4.60;;;;;;;10.77;55.65;100124.56;5064468;28;20044;-71
2022/04/24 00:55:06;;;;;;;7.00;5.25;;;;;;;10.68;55.55;100119.91;5064902;28;20499;-77
2022/04/24 00:57:32;;;;;;;8.05;5.22;;;;;;;10.63;55.71;100122.09;5069635;28;20102;-70
2022/04/24 00:59:57;;;;;;;9.93;5.90;;;;;;;10.60;55.72;100119.66;5066854;28;20044;-76
2022/04/24 01:02:23;;;;;;;11.02;5.55;;;;;;;10.49;56.56;100115.09;5063706;28;20088;-69
2022/04/24 01:04:48;;;;;;;9.07;5.50;;;;;;;10.52;55.98;100120.31;5068307;28;20093;-75
2022/04/24 01:07:13;;;;;;;6.78;5.38;;;;;;;10.48;57.02;100124.28;5062554;28;20039;-73
2022/04/24 01:09:39;;;;;;;9.23;6.10;;;;;;;10.44;57.02;100122.78;5066808;28;20020;-76
2022/04/24 01:12:06;;;;;;;7.80;5.70;;;;;;;10.43;56.30;100118.34;5063139;28;20028;-69
2022/04/24 01:14:32;;;;;;;6.28;5.30;;;;;;;10.32;57.81;100121.97;5067445;28;20492;-76
2022/04/24 01:16:59;;;;;;;7.70;5.47;;;;;;;10.30;57.58;100123.06;5058650;28;20504;-72
2022/04/24 01:19:25;;;;;;;7.43;5.25;;;;;;;10.31;56.80;100131.13;5064525;28;20032;-75
2022/04/24 01:21:51;;;;;;;6.28;5.38;;;;;;;10.30;57.77;100128.50;5065831;28;20032;-77
2022/04/24 01:24:19;;;;;;;5.95;5.05;;;;;;;10.29;57.02;100126.78;5067668;28;20065;-75
2022/04/24 01:26:45;;;;;;;7.70;5.70;;;;;;;10.27;57.36;100126.94;5066596;28;20037;-75
2022/04/24 01:29:11;;;;;;;9.45;6.43;;;;;;;10.29;57.70;100129.50;5071381;28;20043;-77
2022/04/24 01:31:37;;;;;;;6.95;5.65;;;;;;;10.23;58.16;100126.28;5069205;28;20055;-69
2022/04/24 01:34:02;;;;;;;8.07;5.88;;;;;;;10.23;57.93;100129.00;5058248;28;20024;-71
2022/04/24 01:36:27;;;;;;;8.07;6.25;;;;;;;10.19;57.96;100134.81;5065536;28;20043;-76
2022/04/24 01:38:53;;;;;;;8.10;5.72;;;;;;;10.13;57.84;100124.47;5054074;28;20120;-77
2022/04/24 01:41:18;;;;;;;8.57;5.82;;;;;;;10.13;58.17;100136.19;5062294;28;20067;-77
2022/04/24 01:43:46;;;;;;;6.85;5.32;;;;;;;10.11;58.20;100137.28;5061765;28;20503;-68
2022/04/24 01:46:12;;;;;;;7.82;5.82;;;;;;;10.04;58.45;100131.50;5069686;28;20054;-76
2022/04/24 01:48:38;;;;;;;10.38;6.30;;;;;;;10.01;58.41;100131.75;5065757;28;20400;-74
2022/04/24 01:51:05;;;;;;;9.00;6.15;;;;;;;9.94;58.37;100125.97;5069239;28;20040;-72
2022/04/24 01:53:31;;;;;;;8.43;5.95;;;;;;;9.96;58.19;100133.97;5059848;28;20107;-70
2022/04/24 01:55:57;;;;;;;7.70;5.68;;;;;;;9.90;59.04;100131.78;5073129;28;20117;-77
2022/04/24 01:58:26;;;;;;;7.28;6.00;;;;;;;9.88;58.68;100131.00;5070459;28;20399;-78
2022/04/24 02:00:53;;;;;;;8.30;5.65;;;;;;;9.83;58.73;100130.53;5064734;28;20105;-70
2022/04/24 02:03:20;;;;;;;9.73;6.60;;;;;;;9.75;60.10;100133.03;5064966;28;20035;-76
2022/04/24 02:05:45;;;;;;;7.93;6.00;;;;;;;9.71;59.15;100129.69;5062043;28;20043;-71
2022/04/24 02:08:11;;;;;;;7.28;5.97;;;;;;;9.69;59.28;100132.50;5065351;28;20033;-75
2022/04/24 02:10:37;;;;;;;10.68;6.70;;;;;;;9.66;59.86;100123.75;5056843;28;20029;-70
2022/04/24 02:13:02;;;;;;;7.50;6.22;;;;;;;9.62;60.04;100119.56;5069189;28;20044;-70
2022/04/24 02:15:28;;;;;;;8.98;6.18;;;;;;;9.57;59.39;100127.19;5061911;28;20113;-74
2022/04/24 02:17:54;;;;;;;10.75;5.70;;;;;;;9.53;59.39;100132.00;5065809;28;20039;-68
2022/04/24 02:20:20;;;;;;;7.35;6.63;;;;;;;9.54;60.76;100133.72;5057664;28;20024;-69
2022/04/24 02:22:45;;;;;;;9.32;6.22;;;;;;;9.53;60.40;100136.56;5067793;28;20040;-75
2022/04/24 02:25:11;;;;;;;8.80;5.90;;;;;;;9.52;60.34;100133.00;5053009;28;20028;-71
2022/04/24 02:27:36;;;;;;;8.55;6.38;;;;;;;9.56;59.94;100128.16;5072591;28;20107;-70
2022/04/24 02:30:01;;;;;;;7.50;6.38;;;;;;;9.53;59.99;100126.56;5058465;28;20504;-74
2022/04/24 02:32:27;;;;;;;8.40;6.13;;;;;;;9.54;60.15;100127.44;5064466;28;20469;-71
2022/04/24 02:34:52;;;;;;;9.13;6.63;;;;;;;9.50;60.29;100124.09;5064721;28;20384;-77
2022/04/24 02:37:17;;;;;;;8.15;6.38;;;;;;;9.45;60.90;100123.59;5043372;28;20130;-77
2022/04/24 02:39:43;;;;;;;8.85;6.70;;;;;;;9.45;60.38;100126.31;5061090;28;20373;-69
2022/04/24 02:42:08;;;;;;;7.47;6.22;;;;;;;9.45;60.79;100131.75;5064696;28;20119;-70
2022/04/24 02:44:34;;;;;;;8.85;6.55;;;;;;;9.40;61.38;100134.81;5053714;28;20484;-70
2022/04/24 02:47:00;;;;;;;8.27;6.65;;;;;;;9.41;60.83;100133.84;5063613;28;20036;-77
2022/04/24 02:49:25;;;;;;;8.95;6.20;;;;;;;9.41;61.00;100141.13;5067737;28;20396;-70
2022/04/24 02:51:50;;;;;;;9.90;6.95;;;;;;;9.42;60.93;100132.88;5076615;28;20684;-78
2022/04/24 02:54:16;;;;;;;14.13;7.00;;;;;;;9.44;60.80;100132.75;5069770;28;20125;-76
2022/04/24 02:56:41;;;;;;;12.77;6.80;;;;;;;9.44;61.22;100144.47;5051779;28;20136;-71
2022/04/24 02:59:07;;;;;;;8.95;6.95;;;;;;;9.43;61.19;100150.88;5054121;28;20029;-75
2022/04/24 03:01:33;;;;;;;8.40;6.78;;;;;;;9.42;60.85;100142.88;5068756;28;20035;-73
2022/04/24 03:03:59;;;;;;;11.20;7.20;;;;;;;9.41;61.00;100143.81;5064095;28;20138;-71
2022/04/24 03:06:24;;;;;;;9.13;7.13;;;;;;;9.39;61.03;100141.25;5065394;28;20108;-70
2022/04/24 03:08:50;;;;;;;8.80;7.20;;;;;;;9.35;61.25;100138.88;5068657;28;20033;-74
2022/04/24 03:11:15;;;;;;;10.55;7.53;;;;;;;9.32;61.43;100148.13;5060665;28;20029;-78
2022/04/24 03:13:41;;;;;;;9.73;7.43;;;;;;;9.18;61.93;100130.22;5066092;28;20048;-69
2022/04/24 03:16:06;;;;;;;9.38;7.22;;;;;;;9.19;61.67;100142.81;5061419;28;20384;-75
2022/04/24 03:18:32;;;;;;;10.50;8.05;;;;;;;9.13;61.87;100143.28;5067715;28;20024;-70
2022/04/24 03:20:58;;;;;;;11.57;8.25;;;;;;;9.09;61.62;100144.53;5061365;28;20036;-70
2022/04/24 03:23:23;;;;;;;11.25;7.38;;;;;;;9.02;61.76;100145.97;5070716;28;20422;-78
2022/04/24 03:25:50;;;;;;;10.45;8.05;;;;;;;8.97;62.33;100150.88;5054886;28;20044;-70
2022/04/24 03:28:17;;;;;;;12.48;7.85;;;;;;;8.87;62.74;100148.03;5064827;28;20040;-69
2022/04/24 03:30:43;;;;;;;10.45;8.10;;;;;;;8.84;62.55;100145.53;5065329;28;20115;-70
2022/04/24 03:33:08;;;;;;;11.43;8.07;;;;;;;8.78;63.42;100156.84;5058640;28;20028;-77
2022/04/24 03:35:33;;;;;;;12.02;8.50;;;;;;;8.69;63.57;100154.84;5068689;28;20036;-70
2022/04/24 03:37:59;;;;;;;12.20;8.65;;;;;;;8.63;64.16;100149.88;5058927;28;20042;-71
2022/04/24 03:40:24;;;;;;;14.40;8.65;;;;;;;8.53;64.64;100141.56;5063838;28;20032;-70
2022/04/24 03:42:50;;;;;;;11.82;8.43;;;;;;;8.50;64.69;100155.38;5063387;28;20036;-75
2022/04/24 03:45:15;;;;;;;11.68;8.48;;;;;;;8.45;64.69;100146.72;5066711;28;20044;-74
2022/04/24 03:47:40;;;;;;;11.05;7.75;;;;;;;8.42;64.71;100147.78;5066631;28;20111;-69
2022/04/24 03:50:06;;;;;;;15.80;8.02;;;;;;;8.39;64.52;100145.34;5068665;28;20377;-76
2022/04/24 03:52:32;;;;;;;12.18;8.18;;;;;;;8.35;65.20;100151.06;5058065;28;20509;-78
2022/04/24 03:54:57;;;;;;;10.32;7.97;;;;;;;8.31;65.37;100141.44;5061590;28;20028;-69
2022/04/24 03:57:23;;;;;;;11.35;8.35;;;;;;;8.27;65.80;100150.75;5068617;28;20086;-69
2022/04/24 03:59:48;;;;;;;11.85;8.43;;;;;;;8.23;65.98;100143.84;5069665;28;20039;-78
2022/04/24 04:02:14;;;;;;;11.68;8.35;;;;;;;8.22;66.80;100142.09;5064956;28;20032;-76
2022/04/24 04:04:39;;;;;;;12.43;8.55;;;;;;;8.18;66.14;100144.16;5062271;28;20115;-77
2022/04/24 04:07:06;;;;;;;9.88;7.60;;;;;;;8.13;65.85;100140.94;5058492;28;20047;-70
2022/04/24 04:09:31;;;;;;;12.93;8.10;;;;;;;8.15;66.68;100136.25;5057713;28;20069;-75
2022/04/24 04:11:57;;;;;;;10.40;7.70;;;;;;;8.13;66.77;100151.78;5064804;28;20043;-76
2022/04/24 04:14:23;;;;;;;10.55;7.93;;;;;;;8.14;67.40;100150.78;5064481;28;20127;-68
2022/04/24 04:16:49;;;;;;;11.02;7.90;;;;;;;8.10;67.33;100154.69;5056769;28;20540;-71
2022/04/24 04:19:14;;;;;;;10.90;7.55;;;;;;;8.02;67.80;100138.13;5072955;28;20029;-75
2022/04/24 04:21:40;;;;;;;12.07;7.85;;;;;;;8.05;67.45;100146.03;5078701;28;20157;-77
2022/04/24 04:24:06;;;;;;;10.23;7.72;;;;;;;8.02;68.00;100154.38;5066800;28;20047;-75
2022/04/24 04:26:32;;;;;;;12.68;8.15;;;;;;;8.00;68.42;100149.09;5067181;28;20032;-71
2022/04/24 04:28:57;;;;;;;11.77;8.18;;;;;;;7.93;68.26;100143.28;5069293;28;20119;-75
2022/04/24 04:31:22;;;;;;;12.05;8.20;;;;;;;7.96;68.04;100155.72;5066552;28;20118;-70
2022/04/24 04:33:48;;;;;;;13.65;8.10;;;;;;;7.94;67.84;100157.66;5061699;28;20044;-76
2022/04/24 04:36:13;;;;;;;13.15;9.05;;;;;;;7.93;68.81;100154.09;5063098;28;20542;-76
2022/04/24 04:38:38;;;;;;;12.07;8.25;;;;;;;7.91;69.13;100166.88;5050771;28;20025;-74
2022/04/24 04:41:04;;;;;;;12.25;8.45;;;;;;;7.91;68.71;100166.00;5064983;28;20089;-77
2022/04/24 04:43:30;;;;;;;10.20;7.90;;;;;;;7.91;68.49;100168.72;5048625;28;20040;-77
2022/04/24 04:45:56;;;;;;;10.35;8.02;;;;;;;7.90;69.38;100169.69;5054206;28;20041;-76
2022/04/24 04:48:21;;;;;;;11.45;7.88;;;;;;;7.87;69.19;100176.19;5065718;28;20028;-75
2022/04/24 04:50:46;;;;;;;13.07;8.70;;;;;;;7.92;69.06;100179.44;5067101;28;20036;-71
2022/04/24 04:53:12;;;;;;;11.10;8.20;;;;;;;7.90;69.63;100175.13;5062527;28;20032;-70
2022/04/24 04:55:37;;;;;;;11.95;7.78;;;;;;;7.91;69.61;100184.97;5067608;28;20062;-70
2022/04/24 04:58:03;;;;;;;13.43;8.45;;;;;;;7.88;69.61;100183.38;5067869;28;20036;-69
2022/04/24 05:00:29;;;;;;;12.45;8.07;;;;;;;7.90;69.68;100184.09;5065762;28;20127;-71
2022/04/24 05:02:54;;;;;;;14.18;8.98;;;;;;;7.91;69.21;100184.97;5059262;28;20388;-77
2022/04/24 05:05:20;;;;;;;10.93;8.02;;;;;;;7.91;69.97;100177.69;5068460;28;20090;-69
2022/04/24 05:07:45;;;;;;;11.45;8.30;;;;;;;7.94;69.85;100192.88;5062441;28;20037;-69
2022/04/24 05:10:11;;;;;;;10.90;8.10;;;;;;;7.95;69.85;100186.47;5066512;28;20064;-70
2022/04/24 05:12:37;;;;;;;13.02;7.63;;;;;;;7.97;69.86;100197.19;5067169;28;20115;-70
2022/04/24 05:15:07;;;;;;;12.70;7.82;;;;;;;7.99;69.50;100195.25;5066978;28;20468;-78
2022/04/24 05:17:34;;;;;;;11.57;8.15;;;;;;;8.00;70.03;100205.09;5057392;28;20047;-75
2022/04/24 05:20:03;;;;;;;11.05;8.10;;;;;;;8.01;69.37;100198.72;5068037;28;20021;-68
2022/04/24 05:22:28;;;;;;;11.18;7.43;;;;;;;8.04;69.27;100201.22;5054552;28;20109;-70
2022/04/24 05:24:53;;;;;;;11.75;7.30;;;;;;;8.06;69.08;100210.94;5052984;28;20036;-74
2022/04/24 05:27:19;;;;;;;11.65;7.65;;;;;;;8.07;69.74;100209.13;5057973;28;20495;-70
2022/04/24 05:29:45;;;;;;;10.65;7.97;;;;;;;8.12;69.10;100217.78;5068393;28;20020;-75
2022/04/24 05:32:10;;;;;;;10.88;7.03;;;;;;;8.12;69.09;100207.81;5061102;28;20445;-72
2022/04/24 05:34:36;;;;;;;10.90;7.00;;;;;;;8.16;68.97;100214.75;5050246;28;20016;-76
2022/04/24 05:37:03;;;;;;;12.95;8.15;;;;;;;8.22;68.62;100215.28;5065272;28;20170;-75
2022/04/24 05:39:28;;;;;;;14.10;7.50;;;;;;;8.26;68.17;100216.78;5069209;28;20078;-69
2022/04/24 05:41:53;;;;;;;11.10;7.72;;;;;;;8.28;68.34;100215.66;5069306;28;20036;-70
2022/04/24 05:44:19;;;;;;;10.45;7.30;;;;;;;8.30;68.95;100229.09;5056607;28;20044;-76
2022/04/24 05:46:44;;;;;;;9.95;7.50;;;;;;;8.33;68.08;100218.03;5060219;28;20037;-76
2022/04/24 05:49:09;;;;;;;12.40;7.65;;;;;;;8.37;68.39;100222.31;5065390;28;20067;-70
2022/04/24 05:51:35;;;;;;;11.55;7.30;;;;;;;8.43;68.40;100217.28;5062839;28;20469;-77
2022/04/24 05:54:00;;;;;;;10.35;7.28;;;;;;;8.48;67.35;100219.66;5063696;28;20032;-69
2022/04/24 05:56:26;;;;;;;12.20;6.85;;;;;;;8.54;67.05;100226.50;5060378;28;20039;-70
2022/04/24 05:58:51;;;;;;;13.25;7.72;;;;;;;8.53;68.20;100222.88;5065418;28;20028;-78
2022/04/24 06:01:17;;;;;;;10.48;7.53;;;;;;;8.56;67.63;100222.66;5062768;28;20037;-75
2022/04/24 06:03:43;;;;;;;9.98;7.03;;;;;;;8.62;67.06;100224.91;5066199;28;20052;-68
2022/04/24 06:06:09;;;;;;;9.95;6.95;;;;;;;8.66;67.10;100228.28;5065642;28;20097;-69
2022/04/24 06:08:35;;;;;;;9.52;7.13;;;;;;;8.74;65.94;100225.00;5067529;28;20051;-70
2022/04/24 06:11:00;;;;;;;11.70;7.00;;;;;;;8.74;66.49;100235.84;5061523;28;20033;-69
2022/04/24 06:13:26;;;;;;;8.98;6.53;;;;;;;8.80;67.11;100232.66;5052435;28;20276;-76
2022/04/24 06:15:55;;;;;;;8.77;6.88;;;;;;;8.84;65.95;100236.88;5067621;28;20480;-77
2022/04/24 06:18:21;;;;;;;9.50;7.50;;;;;;;8.91;65.99;100233.59;5059812;28;20040;-74
2022/04/24 06:20:47;;;;;;;10.85;6.32;;;;;;;8.98;64.99;100243.97;5053061;28;20036;-76
2022/04/24 06:23:12;;;;;;;11.10;6.53;;;;;;;9.01;65.06;100236.50;5053622;28;20119;-70
2022/04/24 06:25:38;;;;;;;8.82;6.35;;;;;;;9.14;65.61;100240.00;5049277;28;20111;-77
2022/04/24 06:28:04;;;;;;;11.95;6.72;;;;;;;9.19;65.59;100245.94;5054660;28;20129;-74
2022/04/24 06:30:31;;;;;;;11.18;7.05;;;;;;;9.25;66.33;100239.19;5067236;28;20313;-75
2022/04/24 06:32:57;;;;;;;8.85;6.90;;;;;;;9.30;64.18;100246.97;5055369;28;20063;-71
2022/04/24 06:35:24;;;;;;;9.40;6.68;;;;;;;9.34;63.19;100248.47;5063865;28;20039;-69
2022/04/24 06:37:53;;;;;;;8.27;5.88;;;;;;;9.38;64.09;100242.69;5061349;28;20041;-78
2022/04/24 06:40:19;;;;;;;9.38;7.22;;;;;;;9.43;63.70;100251.34;5067228;28;20071;-77
2022/04/24 06:43:01;;;;;;;10.63;6.82;;;;;;;9.52;63.77;100255.19;5071844;28;20040;-78
2022/04/24 06:45:35;;;;;;;9.13;6.78;;;;;;;9.69;62.77;100251.13;5069354;28;20089;-75
2022/04/24 06:48:04;;;;;;;8.77;6.50;;;;;;;9.86;61.43;100253.41;5061694;28;20071;-70
2022/04/24 06:50:30;;;;;;;11.95;7.07;;;;;;;9.97;61.53;100250.69;5071811;28;20025;-69
2022/04/24 06:53:07;;;;;;;10.30;6.95;;;;;;;10.17;61.45;100245.53;5062299;28;20467;-68
2022/04/24 06:55:34;;;;;;;9.98;6.53;;;;;;;10.30;62.79;100259.00;5071815;28;20483;-68
2022/04/24 06:58:00;;;;;;;10.48;6.85;;;;;;;10.35;60.18;100246.81;5067848;28;20714;-68
2022/04/24 07:00:28;;;;;;;8.07;5.88;;;;;;;10.42;60.27;100241.72;5061213;28;20118;-74
2022/04/24 07:02:54;;;;;;;12.48;7.43;;;;;;;10.45;59.68;100250.50;5063858;28;20036;-77
2022/04/24 07:05:21;;;;;;;10.93;7.03;;;;;;;10.45;59.25;100244.19;5071808;28;20472;-68
2022/04/24 07:07:46;;;;;;;9.63;7.32;;;;;;;10.46;58.75;100249.50;5064996;28;20111;-74
2022/04/24 07:10:12;;;;;;;11.07;6.90;;;;;;;10.46;60.20;100249.50;5070633;28;20119;-69
2022/04/24 07:12:51;;;;;;;9.20;6.80;;;;;;;10.53;60.20;100254.44;5068329;28;20408;-68
2022/04/24 07:15:18;;;;;;;9.35;6.57;;;;;;;10.57;60.25;100256.78;5064578;28;20048;-78
2022/04/24 07:17:45;;;;;;;13.25;7.43;;;;;;;10.62;60.46;100257.25;5060717;28;20032;-70
2022/04/24 07:20:12;;;;;;;10.77;6.80;;;;;;;10.68;58.74;100259.50;5069470;28;20033;-69
2022/04/24 07:22:45;;;;;;;10.77;6.90;;;;;;;10.73;59.95;100259.97;5064305;28;20472;-75
2022/04/24 07:25:15;;;;;;;10.50;7.00;;;;;;;10.78;58.85;100259.59;5063406;28;20395;-69
2022/04/24 07:27:40;;;;;;;9.18;7.28;;;;;;;10.85;59.51;100260.81;5065398;28;20502;-70
2022/04/24 07:30:24;;;;;;;10.68;7.15;;;;;;;10.95;60.06;100255.44;5063365;28;20033;-74
2022/04/24 07:32:53;;;;;;;10.18;7.45;;;;;;;11.04;58.26;100260.13;5063962;28;20079;-75
2022/04/24 07:35:20;;;;;;;9.50;6.63;;;;;;;11.10;58.50;100258.78;5067521;28;20033;-74
2022/04/24 07:37:45;;;;;;;12.57;7.57;;;;;;;11.15;58.42;100267.41;5065123;28;20039;-69
2022/04/24 07:40:14;;;;;;;9.18;6.70;;;;;;;11.26;59.10;100261.06;5062030;28;20029;-68
2022/04/24 07:42:46;;;;;;;9.85;7.15;;;;;;;11.34;57.56;100259.41;5060375;28;20033;-74
2022/04/24 07:45:23;;;;;;;11.30;7.40;;;;;;;11.38;57.71;100268.19;5057016;28;20397;-69
2022/04/24 07:47:49;;;;;;;9.05;6.40;;;;;;;11.55;56.42;100264.00;5063774;28;20083;-75
2022/04/24 07:50:15;;;;;;;10.07;7.55;;;;;;;11.84;55.17;100266.97;5063077;28;20056;-68
2022/04/24 07:52:41;;;;;;;11.23;7.38;;;;;;;12.15;54.51;100262.44;5050046;28;20078;-73
2022/04/24 07:55:09;;;;;;;11.20;7.95;;;;;;;12.31;53.52;100261.91;5062663;28;20056;-76
2022/04/24 07:57:35;;;;;;;12.15;7.40;;;;;;;12.47;53.50;100260.41;5064368;28;20557;-75
2022/04/24 08:00:00;;;;;;;8.27;6.32;;;;;;;12.59;53.62;100266.66;5067909;28;20036;-69
2022/04/24 08:02:25;;;;;;;9.93;7.03;;;;;;;12.70;52.44;100262.94;5064002;28;20081;-77
2022/04/24 08:04:51;;;;;;;11.77;7.30;;;;;;;12.89;52.12;100267.59;5048586;28;20048;-70
2022/04/24 08:07:17;;;;;;;10.90;6.75;;;;;;;13.11;51.08;100269.22;5059694;28;20039;-75
2022/04/24 08:09:43;;;;;;;11.65;7.10;;;;;;;13.38;50.58;100268.53;5068871;28;20557;-67
2022/04/24 08:12:09;;;;;;;10.85;7.10;;;;;;;13.66;50.22;100277.72;5065848;28;20036;-67
2022/04/24 08:14:34;;;;;;;8.10;6.70;;;;;;;13.99;51.67;100273.69;5065123;28;20093;-67
2022/04/24 08:16:59;;;;;;;9.35;7.30;;;;;;;14.38;50.17;100276.28;5067161;28;20729;-69
2022/04/24 08:19:25;;;;;;;8.80;7.00;;;;;;;14.46;48.23;100276.41;5067995;28;20537;-73
2022/04/24 08:21:50;;;;;;;8.68;7.05;;;;;;;14.62;48.15;100282.13;5068517;28;20028;-69
2022/04/24 08:24:15;;;;;;;10.88;7.60;;;;;;;14.78;47.53;100279.63;5070051;28;20085;-69
2022/04/24 08:26:41;;;;;;;11.43;7.50;;;;;;;14.71;47.46;100278.47;5057934;28;20048;-75
2022/04/24 08:29:06;;;;;;;11.80;7.30;;;;;;;14.57;48.39;100278.13;5062050;28;20040;-73
2022/04/24 08:31:31;;;;;;;10.20;7.22;;;;;;;14.60;47.39;100277.84;5053296;28;20396;-73
2022/04/24 08:33:57;;;;;;;11.18;7.55;;;;;;;14.92;49.05;100274.59;5058252;28;20082;-67
2022/04/24 08:36:26;;;;;;;10.23;7.47;;;;;;;15.13;47.86;100283.44;5051983;28;20124;-73
2022/04/24 08:38:51;;;;;;;10.80;7.15;;;;;;;15.21;44.59;100267.09;5057730;28;20029;-74
2022/04/24 08:41:21;;;;;;;12.38;8.02;;;;;;;15.09;45.33;100290.22;5055581;28;20032;-68
2022/04/24 08:43:47;;;;;;;11.23;7.95;;;;;;;15.04;47.43;100276.13;5056426;28;20086;-73
2022/04/24 08:46:12;;;;;;;10.32;7.78;;;;;;;15.41;45.29;100283.38;5056541;28;20040;-74
2022/04/24 08:48:40;;;;;;;11.90;7.72;;;;;;;15.44;44.29;100281.19;5067560;28;20028;-74
2022/04/24 08:51:08;;;;;;;10.75;7.43;;;;;;;15.39;45.67;100279.91;5052742;28;20040;-73
2022/04/24 08:53:35;;;;;;;9.30;7.30;;;;;;;15.68;47.30;100279.72;5063406;28;20059;-66
2022/04/24 08:56:01;;;;;;;11.13;7.32;;;;;;;15.93;44.29;100275.28;5068818;28;20040;-70
2022/04/24 08:58:26;;;;;;;10.45;7.47;;;;;;;15.89;44.05;100279.38;5062201;28;20024;-68
2022/04/24 09:00:52;;;;;;;9.48;7.70;;;;;;;15.89;43.26;100282.13;5064977;28;20602;-68
2022/04/24 09:03:17;;;;;;;9.18;7.38;;;;;;;15.85;43.64;100287.06;5063292;28;20037;-69
2022/04/24 09:05:42;;;;;;;9.02;7.53;;;;;;;15.91;46.03;100296.56;5059236;28;20122;-73
2022/04/24 09:08:10;;;;;;;9.38;7.95;;;;;;;16.17;44.51;100285.59;5065973;28;20117;-67
2022/04/24 09:10:50;;;;;;;12.82;8.45;;;;;;;16.54;44.32;100282.53;5062257;28;20033;-73
2022/04/24 09:14:14;;;;;;;12.20;9.07;;;;;;;16.38;43.41;100290.72;5066103;28;20039;-77
2022/04/24 09:16:18;;;;;;;10.32;8.90;;;;;;;16.22;41.65;100288.69;5061571;28;20056;-73
2022/04/24 09:18:46;;;;;;;10.48;8.07;;;;;;;16.30;43.17;100286.88;5065135;28;20036;-76
2022/04/24 09:21:13;;;;;;;12.00;7.72;;;;;;;16.72;44.17;100279.75;5062098;28;20560;-73
2022/04/24 09:23:40;;;;;;;13.43;8.20;;;;;;;16.69;41.21;100285.53;5063671;28;20077;-76
2022/04/24 09:26:05;;;;;;;11.13;8.25;;;;;;;16.70;42.22;100284.53;5041887;28;20369;-67
2022/04/24 09:28:41;;;;;;;14.25;8.32;;;;;;;16.49;42.92;100285.78;5061141;28;20044;-68
2022/04/24 09:31:07;;;;;;;11.05;8.35;;;;;;;16.50;41.77;100282.00;5065805;28;20032;-67
2022/04/24 09:33:40;;;;;;;11.00;7.57;;;;;;;17.08;42.67;100307.91;5066495;28;20075;-67
2022/04/24 09:36:07;;;;;;;12.73;8.38;;;;;;;16.98;42.28;100285.19;5063647;28;20484;-73
2022/04/24 09:38:42;;;;;;;13.88;8.57;;;;;;;16.97;41.40;100284.34;5063410;28;20060;-74
2022/04/24 09:41:23;;;;;;;15.45;9.93;;;;;;;16.81;41.85;100287.88;5064631;28;20446;-68
2022/04/24 09:43:49;;;;;;;9.85;8.15;;;;;;;17.09;41.98;100282.13;5058387;28;20052;-76
2022/04/24 09:46:25;;;;;;;12.27;9.40;;;;;;;17.24;41.85;100290.59;5060848;28;20033;-74
2022/04/24 09:48:52;;;;;;;13.45;8.88;;;;;;;17.33;41.35;100289.56;5057528;28;20081;-69
2022/04/24 09:51:18;;;;;;;12.80;8.43;;;;;;;17.47;41.33;100286.16;5063593;28;20312;-75
2022/04/24 09:53:46;;;;;;;11.73;8.98;;;;;;;17.55;39.22;100285.31;5055797;28;20036;-69
2022/04/24 09:56:13;;;;;;;11.32;8.13;;;;;;;17.55;41.16;100280.69;5063105;28;20051;-68
2022/04/24 09:58:40;;;;;;;15.82;8.57;;;;;;;17.42;39.87;100287.72;5063922;28;20025;-72
2022/04/24 10:01:08;;;;;;;12.13;8.90;;;;;;;17.31;38.59;100294.41;5063347;28;20127;-74
2022/04/24 10:03:35;;;;;;;17.15;8.82;;;;;;;17.26;39.87;100288.53;5056324;28;20021;-74
2022/04/24 10:06:02;;;;;;;11.27;8.05;;;;;;;17.37;40.83;100292.84;5062337;28;20032;-73
2022/04/24 10:08:28;;;;;;;12.38;8.93;;;;;;;17.58;41.01;100298.75;5063305;28;20079;-72
2022/04/24 10:10:53;;;;;;;11.90;8.70;;;;;;;17.65;39.89;100279.66;5064527;28;20056;-74
2022/04/24 10:13:21;;;;;;;10.98;8.63;;;;;;;17.90;41.57;100284.16;5072206;28;20044;-74
2022/04/24 10:15:53;;;;;;;13.57;10.18;;;;;;;17.67;38.08;100294.94;5067891;28;20123;-68
2022/04/24 10:18:24;;;;;;;12.63;9.13;;;;;;;17.50;39.97;100288.59;5057160;28;20112;-68
2022/04/24 10:21:01;;;;;;;12.80;9.55;;;;;;;17.52;40.08;100288.41;5056348;28;20036;-66
2022/04/24 10:23:33;;;;;;;12.50;8.93;;;;;;;17.65;39.16;100291.53;5050546;28;20064;-73
2022/04/24 10:25:59;;;;;;;12.55;8.43;;;;;;;17.85;39.85;100279.16;5054254;28;20489;-69
2022/04/24 10:28:36;;;;;;;10.27;8.65;;;;;;;17.91;40.04;100293.28;5060536;28;20075;-73
2022/04/24 10:31:03;;;;;;;16.85;8.98;;;;;;;17.80;38.71;100291.72;5065005;28;20468;-74
2022/04/24 10:33:37;;;;;;;13.82;8.13;;;;;;;18.04;39.70;100283.47;5065493;28;20115;-73
2022/04/24 10:36:05;;;;;;;12.75;7.75;;;;;;;18.28;38.13;100296.38;5068616;28;20033;-68
2022/04/24 10:38:32;;;;;;;12.23;7.55;;;;;;;18.52;38.31;100294.59;5070712;28;20726;-75
2022/04/24 10:40:59;;;;;;;13.75;7.85;;;;;;;18.49;36.69;100311.47;5065844;28;20028;-68
2022/04/24 10:43:25;;;;;;;9.02;7.78;;;;;;;18.29;38.80;100299.97;5056069;28;20068;-73
2022/04/24 10:45:51;;;;;;;9.85;7.85;;;;;;;18.53;40.09;100282.53;5063161;28;20045;-66
2022/04/24 10:48:18;;;;;;;9.20;7.13;;;;;;;18.73;36.98;100299.53;5069568;28;20033;-68
2022/04/24 10:50:47;;;;;;;11.57;7.72;;;;;;;18.70;37.90;100300.78;5067028;28;20484;-74
2022/04/24 10:53:12;;;;;;;10.02;7.95;;;;;;;18.36;36.47;100300.97;5053995;28;20040;-76
2022/04/24 10:55:38;;;;;;;10.32;7.97;;;;;;;18.19;36.17;100297.41;5072992;28;20483;-73
2022/04/24 10:58:05;;;;;;;9.98;7.15;;;;;;;18.39;39.43;100295.13;5058331;28;20570;-74
2022/04/24 11:00:34;;;;;;;13.43;7.40;;;;;;;18.45;36.22;100302.69;5064550;28;20037;-69
2022/04/24 11:03:14;;;;;;;14.30;7.50;;;;;;;18.26;36.92;100289.28;5055270;28;20080;-74
2022/04/24 11:05:47;;;;;;;9.15;7.28;;;;;;;18.44;37.05;100286.34;5040754;28;20028;-67
2022/04/24 11:08:18;;;;;;;8.40;6.93;;;;;;;18.74;38.82;100284.72;5059311;28;20033;-67
2022/04/24 11:10:46;;;;;;;9.98;6.70;;;;;;;18.83;36.65;100289.16;5064499;28;20562;-68
2022/04/24 11:13:14;;;;;;;7.20;6.47;;;;;;;18.97;37.33;100290.31;5065580;28;20027;-73
2022/04/24 11:15:45;;;;;;;9.10;7.55;;;;;;;18.75;38.79;100298.34;5063502;28;20079;-70
2022/04/24 11:18:27;;;;;;;10.40;7.70;;;;;;;18.74;37.98;100293.84;5057958;28;20033;-69
2022/04/24 11:21:01;;;;;;;10.32;7.70;;;;;;;18.79;36.74;100296.94;5066047;28;20044;-67
2022/04/24 11:23:29;;;;;;;7.97;6.95;;;;;;;18.93;37.43;100288.94;5068269;28;20499;-67